LVNO2: Poteau River At Loving, OK

                                SHEF ID:       LVNO2     Poteau River at Loving, OK
STATION TYPE:
Regulating: Stage = 20.00, Flow = 4673

STAGE RIV-FLOW VOLTAGE BAT-LOAD
ft cfs volt volt
Ccp-Rev Ccp-Rev Ccp-Rev Ccp-Rev
(America/Chicago)
04/25 00:00 20.71 5022 12.73 ----
04/25 01:00 20.85 5091 12.71 ----
04/25 02:00 20.70 5017 12.68 ----
04/25 03:00 20.28 4811 12.66 ----
04/25 04:00 19.63 4487 12.65 ----
04/25 05:00 18.87 4111 12.65 ----
04/25 06:00 18.06 3702 12.63 ----
04/25 07:00 17.37 3359 12.64 ----
04/25 08:00 16.78 3058 12.70 ----
04/25 09:00 16.28 2805 12.88 ----
04/25 10:00 15.89 2607 13.20 ----
04/25 11:00 15.53 2426 14.20 ----
04/25 12:00 15.19 2259 14.43 ----
04/25 13:00 14.88 2106 14.30 ----
04/25 14:00 14.60 1968 13.46 ----
04/25 15:00 14.37 1857 13.79 ----
04/25 16:00 14.15 1751 13.71 ----
04/25 17:00 13.95 1656 13.19 ----
04/25 18:00 13.77 1570 13.01 ----
04/25 19:00 13.82 1594 13.01 ----
04/25 20:00 13.93 1646 12.88 ----
04/25 21:00 14.32 1832 12.85 ----
04/25 22:00 15.71 2516 12.82 ----
04/25 23:00 ---- ---- ---- ----
Data processed at Sun 26Apr2026 03:51 GMT

NOTICE: If you are parsing this page

Please convert to using our Data API. Starting early 2026 we will be migrating to: https://water.usace.army.mil with modern pages rendered in JavaScript. When this migration completes you will no longer be able to scrape this page! CWMSDataAPI (CDA)

Timeseries IDs (TSIDs)

TSIDs used from left to right in the data table
LOVI.Stage.Inst.1Hour.0.Ccp-Rev
LOVI.Flow.Inst.1Hour.0.Ccp-Rev
LOVI.Volt-Battery.Inst.1Hour.0.Ccp-Rev
LOVI.Volt-Battery Load.Inst.1Hour.0.Ccp-Rev

                            

All information presented herein is the property of the government of the United States of America and may be revised or deleted at any time without prior notice. Dissemination of this information without the expressed written consent of the Public Affairs Office, Tulsa District U.S. Army Corps of Engineers is strictly prohibited. These data are gathered electronically and, as presented, have NOT undergone any form of quality control. These data are NOT guaranteed to be valid or correct.